Time;durP1;ratioP1;P1;durP2;ratioP2;P2;SDS_P1;SDS_P2;PMS_P1;PMS_P2;Temp;Humidity;BMP_temperature;BMP_pressure;BME280_temperature;BME280_humidity;BME280_pressure;Samples;Min_cycle;Max_cycle;Signal;HPM_P1;HPM_P2
2022/02/25 00:01:15;;;;;;;6.72;1.73;;;23.60;99.90;;;;;;5023188;28;20105;-74
2022/02/25 00:03:42;;;;;;;6.28;1.15;;;23.60;99.90;;;;;;5025889;28;20051;-74
2022/02/25 00:06:09;;;;;;;3.65;1.10;;;23.70;99.90;;;;;;5021973;28;20038;-73
2022/02/25 00:08:37;;;;;;;5.18;1.35;;;23.70;99.90;;;;;;5023557;28;20049;-74
2022/02/25 00:11:04;;;;;;;1.95;0.73;;;23.60;99.90;;;;;;5028710;28;20029;-73
2022/02/25 00:13:32;;;;;;;1.83;0.52;;;23.60;99.90;;;;;;5031341;28;20021;-74
2022/02/25 00:15:59;;;;;;;3.97;1.00;;;23.50;99.90;;;;;;5032533;28;20518;-74
2022/02/25 00:18:27;;;;;;;4.32;0.75;;;23.60;99.90;;;;;;5029546;28;20424;-75
2022/02/25 00:20:54;;;;;;;6.03;1.38;;;23.70;99.90;;;;;;5013998;28;20117;-74
2022/02/25 00:23:23;;;;;;;4.93;1.23;;;23.80;99.90;;;;;;5023772;28;20057;-74
2022/02/25 00:25:50;;;;;;;5.65;0.55;;;23.70;99.90;;;;;;5032374;28;20376;-72
2022/02/25 00:28:17;;;;;;;3.90;0.98;;;23.60;99.90;;;;;;5022134;28;20038;-73
2022/02/25 00:30:46;;;;;;;3.92;1.42;;;23.60;99.90;;;;;;5025770;28;20029;-72
2022/02/25 00:33:16;;;;;;;4.82;0.80;;;23.50;99.90;;;;;;5027132;28;20072;-72
2022/02/25 00:35:44;;;;;;;5.57;1.15;;;23.60;99.90;;;;;;5029157;28;20033;-72
2022/02/25 00:38:11;;;;;;;2.60;0.90;;;23.60;99.90;;;;;;5030637;28;20341;-75
2022/02/25 00:40:39;;;;;;;3.45;1.17;;;23.60;99.90;;;;;;5028987;28;20022;-72
2022/02/25 00:43:06;;;;;;;10.95;1.20;;;23.60;99.90;;;;;;5028167;28;20083;-72
2022/02/25 00:45:34;;;;;;;3.65;0.85;;;23.60;99.90;;;;;;5029900;28;20120;-74
2022/02/25 00:48:01;;;;;;;5.15;1.15;;;23.60;99.90;;;;;;5029996;28;20026;-72
2022/02/25 00:50:29;;;;;;;6.45;1.45;;;23.70;99.90;;;;;;5026905;28;20503;-72
2022/02/25 00:52:56;;;;;;;5.40;0.88;;;23.70;99.90;;;;;;5027286;28;20018;-73
2022/02/25 00:55:24;;;;;;;5.53;0.90;;;23.80;99.90;;;;;;5017667;28;20104;-72
2022/02/25 00:57:52;;;;;;;3.95;0.80;;;23.80;99.90;;;;;;5021693;28;20061;-73
2022/02/25 01:00:20;;;;;;;9.07;1.48;;;23.70;99.90;;;;;;5028425;28;20093;-74
2022/02/25 01:02:48;;;;;;;6.43;1.20;;;23.60;99.90;;;;;;5021329;28;20091;-73
2022/02/25 01:05:15;;;;;;;3.53;0.65;;;23.60;99.90;;;;;;5026891;28;20029;-74
2022/02/25 01:07:46;;;;;;;2.17;0.70;;;23.70;99.90;;;;;;5026466;28;20561;-72
2022/02/25 01:10:16;;;;;;;7.82;1.50;;;23.60;99.90;;;;;;5024154;28;20056;-71
2022/02/25 01:12:48;;;;;;;4.70;1.00;;;23.60;99.90;;;;;;5025655;28;20018;-72
2022/02/25 01:15:17;;;;;;;4.10;1.08;;;23.50;99.90;;;;;;5018935;28;20025;-73
2022/02/25 01:17:44;;;;;;;6.00;0.90;;;23.50;99.90;;;;;;5028813;28;20026;-72
2022/02/25 01:20:12;;;;;;;5.45;1.40;;;23.40;99.90;;;;;;5023641;28;20353;-74
2022/02/25 01:22:40;;;;;;;2.83;0.52;;;23.40;99.90;;;;;;5019700;28;20022;-74
2022/02/25 01:25:08;;;;;;;5.00;0.77;;;23.30;99.90;;;;;;5014023;28;20037;-73
2022/02/25 01:27:35;;;;;;;5.10;0.75;;;23.20;99.90;;;;;;5021953;28;20198;-73
2022/02/25 01:30:04;;;;;;;8.30;0.80;;;23.10;99.90;;;;;;5022544;28;20052;-73
2022/02/25 01:32:32;;;;;;;3.75;1.00;;;23.10;99.90;;;;;;5026676;28;20484;-72
2022/02/25 01:35:00;;;;;;;4.38;0.60;;;23.20;99.90;;;;;;5025685;28;20029;-72
2022/02/25 01:37:28;;;;;;;2.15;0.60;;;23.30;99.90;;;;;;5025920;28;20130;-73
2022/02/25 01:39:55;;;;;;;4.30;1.15;;;23.40;99.90;;;;;;5024418;28;20025;-71
2022/02/25 01:42:23;;;;;;;2.97;1.20;;;23.50;99.90;;;;;;5023877;28;20036;-72
2022/02/25 01:44:51;;;;;;;3.53;0.65;;;23.40;99.90;;;;;;5028001;28;20026;-73
2022/02/25 01:47:18;;;;;;;4.97;0.95;;;23.50;99.90;;;;;;5018050;28;20420;-75
2022/02/25 01:49:46;;;;;;;2.88;0.70;;;23.50;99.90;;;;;;5025874;28;20040;-73
2022/02/25 01:52:18;;;;;;;5.05;0.93;;;23.50;99.90;;;;;;5028776;28;20100;-72
2022/02/25 01:54:47;;;;;;;3.10;0.88;;;23.40;99.90;;;;;;5028097;28;20028;-75
2022/02/25 01:57:16;;;;;;;2.50;0.90;;;23.50;99.90;;;;;;5019919;28;20026;-72
2022/02/25 01:59:45;;;;;;;2.95;0.65;;;23.70;99.90;;;;;;5022863;28;20607;-74
2022/02/25 02:02:12;;;;;;;4.82;0.90;;;23.80;99.90;;;;;;5024845;28;20038;-73
2022/02/25 02:04:40;;;;;;;6.78;1.25;;;23.90;99.90;;;;;;5028830;28;20071;-73
2022/02/25 02:07:10;;;;;;;3.35;0.50;;;24.00;99.90;;;;;;5027401;28;20480;-72
2022/02/25 02:09:38;;;;;;;4.32;0.98;;;23.90;99.90;;;;;;5022808;28;20124;-73
2022/02/25 02:12:06;;;;;;;5.78;1.10;;;23.80;99.90;;;;;;5018973;28;20038;-74
2022/02/25 02:14:33;;;;;;;6.50;1.00;;;23.90;99.90;;;;;;5024151;28;20018;-73
2022/02/25 02:17:01;;;;;;;4.90;1.00;;;23.90;99.90;;;;;;5027658;28;20506;-72
2022/02/25 02:19:29;;;;;;;4.68;1.00;;;23.80;99.90;;;;;;5018829;28;20022;-72
2022/02/25 02:21:58;;;;;;;5.72;1.30;;;23.80;99.90;;;;;;5016527;28;20559;-74
2022/02/25 02:24:25;;;;;;;9.55;3.75;;;23.80;99.90;;;;;;5026593;28;20542;-73
2022/02/25 02:26:55;;;;;;;6.45;2.47;;;23.80;99.90;;;;;;5025330;28;20030;-72
2022/02/25 02:29:23;;;;;;;2.25;0.70;;;23.90;99.90;;;;;;5021371;28;20452;-75
2022/02/25 02:31:51;;;;;;;3.35;1.02;;;23.90;99.90;;;;;;5011257;28;20196;-74
2022/02/25 02:34:19;;;;;;;5.50;1.77;;;24.00;99.90;;;;;;5023242;28;20025;-73
2022/02/25 02:36:47;;;;;;;2.25;1.48;;;24.10;99.90;;;;;;5020773;28;20030;-74
2022/02/25 02:39:15;;;;;;;5.55;0.82;;;24.10;99.90;;;;;;5018748;28;20085;-74
2022/02/25 02:41:42;;;;;;;2.17;0.60;;;24.20;99.90;;;;;;5020650;28;20415;-73
2022/02/25 02:44:10;;;;;;;2.15;1.10;;;24.20;99.90;;;;;;5021629;28;20022;-74
2022/02/25 02:46:38;;;;;;;1.55;0.50;;;24.30;99.90;;;;;;5019604;28;20433;-75
2022/02/25 02:49:06;;;;;;;3.03;0.80;;;24.50;99.90;;;;;;5021826;28;20037;-73
2022/02/25 02:51:33;;;;;;;2.70;0.50;;;24.50;99.90;;;;;;5030007;28;20038;-74
2022/02/25 02:54:01;;;;;;;3.78;0.73;;;24.50;99.90;;;;;;5023361;28;20326;-74
2022/02/25 02:56:28;;;;;;;2.85;0.50;;;24.50;99.90;;;;;;5024578;28;20515;-73
2022/02/25 02:58:56;;;;;;;2.75;0.50;;;24.40;99.90;;;;;;5028881;28;20028;-74
2022/02/25 03:01:26;;;;;;;3.00;0.50;;;24.30;99.90;;;;;;5024586;28;20105;-74
2022/02/25 03:03:54;;;;;;;6.75;0.98;;;24.30;99.90;;;;;;5028712;28;20041;-72
2022/02/25 03:06:23;;;;;;;4.38;0.50;;;24.30;99.90;;;;;;5023825;28;20044;-73
2022/02/25 03:08:50;;;;;;;2.72;1.08;;;24.40;99.90;;;;;;5023524;28;20033;-72
2022/02/25 03:11:18;;;;;;;4.70;0.57;;;24.40;99.90;;;;;;5026799;28;20029;-73
2022/02/25 03:13:45;;;;;;;3.63;1.17;;;24.60;99.90;;;;;;5027456;28;20028;-72
2022/02/25 03:16:12;;;;;;;3.25;0.55;;;24.70;99.90;;;;;;5029459;28;20128;-73
2022/02/25 03:18:40;;;;;;;1.83;0.60;;;24.90;99.90;;;;;;5022375;28;20349;-74
2022/02/25 03:21:10;;;;;;;2.97;0.95;;;25.10;99.90;;;;;;5033313;28;20767;-73
2022/02/25 03:23:37;;;;;;;2.22;1.02;;;25.30;99.90;;;;;;5025248;28;20088;-73
2022/02/25 03:26:05;;;;;;;4.85;0.50;;;25.30;99.90;;;;;;5029573;28;20037;-74
2022/02/25 03:28:32;;;;;;;1.45;0.30;;;25.50;99.90;;;;;;5030699;28;20115;-73
2022/02/25 03:31:00;;;;;;;1.05;0.60;;;25.50;99.90;;;;;;5030157;28;20115;-73
2022/02/25 03:33:27;;;;;;;1.00;0.45;;;25.40;99.90;;;;;;5030544;28;20109;-73
2022/02/25 03:35:55;;;;;;;1.40;0.73;;;25.20;99.90;;;;;;5031840;28;20553;-73
2022/02/25 03:38:23;;;;;;;2.95;0.80;;;25.10;99.90;;;;;;5030278;28;20480;-73
2022/02/25 03:40:51;;;;;;;1.88;0.30;;;24.90;99.90;;;;;;5025476;28;20038;-74
2022/02/25 03:43:18;;;;;;;1.77;0.50;;;24.80;99.90;;;;;;5024688;28;20107;-72
2022/02/25 03:45:45;;;;;;;3.58;0.65;;;24.70;99.90;;;;;;5024815;28;20475;-73
2022/02/25 03:48:13;;;;;;;2.17;0.70;;;24.50;99.90;;;;;;5024418;28;20097;-74
2022/02/25 03:50:40;;;;;;;3.38;0.40;;;24.40;99.90;;;;;;5033297;28;20049;-73
2022/02/25 03:53:07;;;;;;;4.53;0.40;;;24.30;99.90;;;;;;5027552;28;20020;-73
2022/02/25 03:55:35;;;;;;;5.18;1.08;;;24.20;99.90;;;;;;5016685;28;20044;-74
2022/02/25 03:58:03;;;;;;;3.58;0.47;;;24.10;99.90;;;;;;5025619;28;20865;-74
2022/02/25 04:00:30;;;;;;;1.38;0.60;;;24.10;99.90;;;;;;5031638;28;20060;-73
2022/02/25 04:02:58;;;;;;;1.83;0.55;;;24.10;99.90;;;;;;5027748;28;20051;-73
2022/02/25 04:05:25;;;;;;;5.10;0.90;;;24.20;99.90;;;;;;5019866;28;20025;-77
2022/02/25 04:07:53;;;;;;;2.15;0.60;;;24.30;99.90;;;;;;5022849;28;20026;-74
2022/02/25 04:10:21;;;;;;;3.45;0.55;;;24.30;99.90;;;;;;5014039;28;21823;-75
2022/02/25 04:12:48;;;;;;;2.90;0.55;;;24.20;99.90;;;;;;5025283;28;20026;-74
2022/02/25 04:15:16;;;;;;;4.40;1.23;;;24.10;99.90;;;;;;5030885;28;20029;-73
2022/02/25 04:17:44;;;;;;;5.15;1.95;;;23.90;99.90;;;;;;5020420;28;20080;-76
2022/02/25 04:20:11;;;;;;;1.35;0.30;;;23.70;99.90;;;;;;5031549;28;20025;-76
2022/02/25 04:22:39;;;;;;;0.65;0.50;;;23.70;99.90;;;;;;5025879;28;20040;-74
2022/02/25 04:25:07;;;;;;;1.90;0.40;;;23.80;99.90;;;;;;5020051;28;20047;-75
2022/02/25 04:27:35;;;;;;;1.30;0.70;;;23.90;99.90;;;;;;5023073;28;20049;-74
2022/02/25 04:30:03;;;;;;;0.82;0.60;;;24.00;99.90;;;;;;5022765;28;20045;-76
2022/02/25 04:32:30;;;;;;;4.00;1.20;;;24.10;99.90;;;;;;5029338;28;20467;-75
2022/02/25 04:34:57;;;;;;;1.83;0.50;;;24.10;99.90;;;;;;5029111;28;20105;-76
2022/02/25 04:37:25;;;;;;;1.92;0.80;;;24.20;99.90;;;;;;5028394;28;20452;-75
2022/02/25 04:39:52;;;;;;;5.88;0.90;;;24.30;99.90;;;;;;5028036;28;20026;-74
2022/02/25 04:42:19;;;;;;;2.38;0.57;;;24.40;99.90;;;;;;5023742;28;20040;-73
2022/02/25 04:44:46;;;;;;;1.25;0.50;;;24.50;99.90;;;;;;5025335;28;20484;-73
2022/02/25 04:47:14;;;;;;;2.53;0.50;;;24.70;99.90;;;;;;5027567;28;20040;-73
2022/02/25 04:49:42;;;;;;;3.15;0.30;;;24.90;99.90;;;;;;5024103;28;20033;-73
2022/02/25 04:52:12;;;;;;;3.45;0.95;;;25.00;99.90;;;;;;5027329;28;20423;-73
2022/02/25 04:54:39;;;;;;;0.68;0.30;;;25.00;99.90;;;;;;5023812;28;20033;-73
2022/02/25 04:57:07;;;;;;;2.85;0.28;;;25.00;99.90;;;;;;5029026;28;20438;-74
2022/02/25 04:59:34;;;;;;;1.75;0.40;;;25.00;99.90;;;;;;5022736;28;20323;-74
2022/02/25 05:02:01;;;;;;;4.03;1.02;;;24.90;99.90;;;;;;5016654;28;20117;-74
2022/02/25 05:04:28;;;;;;;2.22;0.43;;;24.90;99.90;;;;;;5024106;28;20018;-74
2022/02/25 05:06:56;;;;;;;0.63;0.55;;;24.90;99.90;;;;;;5026892;28;20025;-73
2022/02/25 05:09:23;;;;;;;1.17;0.15;;;24.80;99.90;;;;;;5029007;28;20095;-73
2022/02/25 05:11:50;;;;;;;1.10;0.30;;;24.70;99.90;;;;;;5027707;28;20112;-74
2022/02/25 05:22:34;;;;;;;2.63;0.40;;;24.10;99.90;;;;;;5023608;28;20045;-73
2022/02/25 05:25:02;;;;;;;1.45;0.50;;;24.00;99.90;;;;;;5028488;28;20468;-73
2022/02/25 05:27:29;;;;;;;3.80;1.92;;;24.00;99.90;;;;;;5024397;28;20467;-73
2022/02/25 05:29:56;;;;;;;2.17;0.73;;;23.90;99.90;;;;;;5030027;28;20033;-74
2022/02/25 05:32:24;;;;;;;1.77;0.50;;;23.90;99.90;;;;;;5029021;28;20021;-73
2022/02/25 05:34:51;;;;;;;0.90;0.38;;;23.80;99.90;;;;;;5022435;28;20033;-73
2022/02/25 05:37:18;;;;;;;3.30;0.85;;;23.70;99.90;;;;;;5022708;28;20045;-74
2022/02/25 05:39:45;;;;;;;1.55;0.38;;;23.70;99.90;;;;;;5026154;28;20111;-74
2022/02/25 05:42:13;;;;;;;2.00;0.30;;;23.80;99.90;;;;;;5024974;28;20048;-74
2022/02/25 05:44:40;;;;;;;1.20;0.40;;;23.80;99.90;;;;;;5030747;28;20504;-74
2022/02/25 05:47:08;;;;;;;1.35;0.32;;;23.80;99.90;;;;;;5031491;28;20033;-75
2022/02/25 05:49:35;;;;;;;0.82;0.50;;;23.90;99.90;;;;;;5027821;28;20041;-74
2022/02/25 05:52:03;;;;;;;2.70;0.50;;;23.90;99.90;;;;;;5029644;28;20108;-70
2022/02/25 05:54:30;;;;;;;3.40;0.43;;;24.00;99.90;;;;;;5029896;28;20383;-74
2022/02/25 05:56:57;;;;;;;4.65;0.77;;;23.90;99.90;;;;;;5021482;28;20036;-73
2022/02/25 05:59:25;;;;;;;3.00;0.50;;;23.90;99.90;;;;;;5026287;28;20396;-74
2022/02/25 06:01:52;;;;;;;2.13;0.50;;;23.90;99.90;;;;;;5014027;28;20025;-74
2022/02/25 06:04:20;;;;;;;2.33;0.50;;;23.80;99.90;;;;;;5029508;28;20036;-73
2022/02/25 06:06:47;;;;;;;3.78;0.77;;;23.80;99.90;;;;;;5029409;28;20045;-73
2022/02/25 06:09:14;;;;;;;2.13;0.90;;;23.80;99.90;;;;;;5025647;28;20036;-74
2022/02/25 06:11:42;;;;;;;1.50;0.65;;;23.80;99.90;;;;;;5020019;28;20044;-74
2022/02/25 06:14:10;;;;;;;3.35;0.30;;;23.70;99.90;;;;;;5023469;28;20033;-74
2022/02/25 06:16:37;;;;;;;3.92;0.93;;;23.70;99.90;;;;;;5029068;28;20033;-75
2022/02/25 06:19:04;;;;;;;1.33;0.50;;;23.70;99.90;;;;;;5028409;28;20026;-74
2022/02/25 06:21:32;;;;;;;2.25;0.55;;;23.70;99.90;;;;;;5025737;28;20033;-74
2022/02/25 06:23:59;;;;;;;5.57;2.35;;;23.70;99.90;;;;;;5026417;28;20179;-74
2022/02/25 06:26:27;;;;;;;5.50;0.95;;;23.70;99.90;;;;;;5027383;28;20083;-74
2022/02/25 06:28:54;;;;;;;3.10;0.68;;;23.60;99.90;;;;;;5029073;28;20055;-75
2022/02/25 06:31:23;;;;;;;5.78;1.08;;;23.50;99.90;;;;;;5022170;28;20026;-74
2022/02/25 06:33:50;;;;;;;2.85;1.02;;;23.40;99.90;;;;;;5028442;28;20475;-74
2022/02/25 06:36:18;;;;;;;2.15;0.70;;;23.40;99.90;;;;;;5024559;28;20026;-74
2022/02/25 06:38:48;;;;;;;2.65;0.73;;;23.40;99.90;;;;;;5022931;28;20438;-74
2022/02/25 06:41:16;;;;;;;5.00;0.77;;;23.40;99.90;;;;;;5023672;28;20159;-74
2022/02/25 06:43:44;;;;;;;3.97;0.70;;;23.30;99.90;;;;;;5032086;28;20022;-74
2022/02/25 06:46:12;;;;;;;2.78;0.50;;;23.30;99.90;;;;;;5030465;28;20044;-74
2022/02/25 06:48:39;;;;;;;2.60;0.47;;;23.30;99.90;;;;;;5029857;28;20037;-73
2022/02/25 06:51:07;;;;;;;2.70;1.33;;;23.30;99.90;;;;;;5027032;28;20068;-73
2022/02/25 06:53:36;;;;;;;2.28;0.50;;;23.20;99.90;;;;;;5022747;28;20067;-71
2022/02/25 06:56:05;;;;;;;2.33;0.65;;;23.10;99.90;;;;;;5026085;28;20429;-73
2022/02/25 06:58:34;;;;;;;1.38;0.60;;;23.10;99.90;;;;;;5022180;28;20097;-73
2022/02/25 07:01:02;;;;;;;5.35;0.60;;;23.10;99.90;;;;;;5024437;28;20103;-73
2022/02/25 07:03:30;;;;;;;3.08;0.55;;;23.00;99.90;;;;;;5030877;28;20087;-72
2022/02/25 07:05:57;;;;;;;2.80;0.73;;;23.00;99.90;;;;;;5028930;28;20022;-74
2022/02/25 07:08:25;;;;;;;3.85;0.93;;;22.90;99.90;;;;;;5029966;28;20025;-75
2022/02/25 07:10:52;;;;;;;2.88;1.10;;;22.90;99.90;;;;;;5033055;28;20045;-75
2022/02/25 07:13:19;;;;;;;3.25;0.60;;;22.90;99.90;;;;;;5025167;28;20468;-75
2022/02/25 07:15:48;;;;;;;2.67;0.55;;;22.80;99.90;;;;;;5029925;28;20109;-75
2022/02/25 07:18:16;;;;;;;2.75;0.65;;;22.80;99.90;;;;;;5033564;28;20146;-75
2022/02/25 07:20:44;;;;;;;3.20;0.75;;;22.80;99.90;;;;;;5035336;28;20036;-74
2022/02/25 07:23:13;;;;;;;2.40;0.40;;;22.70;99.90;;;;;;5032873;28;20045;-75
2022/02/25 07:25:42;;;;;;;2.15;0.93;;;22.60;99.90;;;;;;5031709;28;20034;-75
2022/02/25 07:28:10;;;;;;;5.95;0.70;;;22.70;99.90;;;;;;5030302;28;20047;-73
2022/02/25 07:30:38;;;;;;;2.58;0.73;;;22.60;99.90;;;;;;5022821;28;20145;-75
2022/02/25 07:33:06;;;;;;;2.22;0.45;;;22.60;99.90;;;;;;5033427;28;20025;-76
2022/02/25 07:35:33;;;;;;;3.13;0.50;;;22.50;99.90;;;;;;5034780;28;20033;-76
2022/02/25 07:38:01;;;;;;;3.92;0.70;;;22.50;99.90;;;;;;5033389;28;20028;-74
2022/02/25 07:40:28;;;;;;;4.53;0.40;;;22.40;99.90;;;;;;5028696;28;20080;-75
2022/02/25 07:42:57;;;;;;;4.78;1.00;;;22.40;99.90;;;;;;5027974;28;20397;-76
2022/02/25 07:45:27;;;;;;;2.30;0.82;;;22.30;99.90;;;;;;5032714;28;20120;-75
2022/02/25 07:47:55;;;;;;;3.08;0.85;;;22.30;99.90;;;;;;5026569;28;20057;-74
2022/02/25 07:50:22;;;;;;;2.08;0.40;;;22.30;99.90;;;;;;5028120;28;20147;-75
2022/02/25 07:52:50;;;;;;;3.88;0.70;;;22.20;99.90;;;;;;5028003;28;20041;-75
2022/02/25 07:55:17;;;;;;;6.38;0.70;;;22.10;99.90;;;;;;5031013;28;20041;-75
2022/02/25 07:57:44;;;;;;;3.63;0.65;;;22.10;99.90;;;;;;5029610;28;20033;-75
2022/02/25 08:00:15;;;;;;;3.53;0.90;;;22.00;99.90;;;;;;5020698;28;20109;-74
2022/02/25 08:02:44;;;;;;;3.63;1.30;;;22.00;99.90;;;;;;5021999;28;20025;-74
2022/02/25 08:05:12;;;;;;;3.60;0.88;;;22.00;99.90;;;;;;5020778;28;20279;-74
2022/02/25 08:07:39;;;;;;;2.50;0.95;;;22.00;99.90;;;;;;5022546;28;20371;-74
2022/02/25 08:10:07;;;;;;;2.58;0.80;;;22.00;99.90;;;;;;5024978;28;20036;-75
2022/02/25 08:15:59;;;;;;;3.15;0.60;;;21.90;99.90;;;;;;5026206;28;20037;-74
2022/02/25 08:18:27;;;;;;;3.88;1.02;;;22.00;99.90;;;;;;5031523;28;20183;-75
2022/02/25 08:20:54;;;;;;;4.43;0.88;;;21.90;99.90;;;;;;5031149;28;20022;-75
2022/02/25 08:23:21;;;;;;;4.80;1.30;;;21.90;99.90;;;;;;5031134;28;20021;-75
2022/02/25 08:25:49;;;;;;;3.40;0.60;;;21.90;99.90;;;;;;5030680;28;20093;-74
2022/02/25 08:28:16;;;;;;;3.30;0.60;;;21.90;99.90;;;;;;5026941;28;20050;-73
2022/02/25 08:30:43;;;;;;;2.53;0.77;;;21.90;99.90;;;;;;5030156;28;20038;-75
2022/02/25 08:33:11;;;;;;;3.92;1.02;;;21.90;99.90;;;;;;5032609;28;20026;-77
2022/02/25 08:35:39;;;;;;;3.83;0.57;;;21.90;99.90;;;;;;5022111;28;20112;-74
2022/02/25 08:38:08;;;;;;;7.57;0.98;;;21.90;99.90;;;;;;5026225;28;20451;-76
2022/02/25 08:40:36;;;;;;;5.18;0.82;;;21.90;99.90;;;;;;5027658;28;20029;-72
2022/02/25 08:43:04;;;;;;;3.40;0.88;;;21.90;99.90;;;;;;5034537;28;20049;-75
2022/02/25 08:45:33;;;;;;;4.63;1.23;;;21.90;99.90;;;;;;5033281;28;20422;-76
2022/02/25 08:48:01;;;;;;;3.88;1.48;;;21.90;99.90;;;;;;5029233;28;20092;-75
2022/02/25 08:50:32;;;;;;;5.80;0.98;;;21.90;99.90;;;;;;5018479;28;20053;-73
2022/02/25 08:52:59;;;;;;;4.68;0.68;;;21.90;99.90;;;;;;5028733;28;20143;-73
2022/02/25 08:55:27;;;;;;;3.08;1.30;;;21.80;99.90;;;;;;5030631;28;20049;-77
2022/02/25 08:57:54;;;;;;;3.33;1.08;;;21.80;99.90;;;;;;5026955;28;20107;-76
2022/02/25 09:00:24;;;;;;;5.47;0.70;;;21.80;99.90;;;;;;5025863;28;20025;-74
2022/02/25 09:02:52;;;;;;;2.65;0.90;;;21.80;99.90;;;;;;5027729;28;20100;-76
2022/02/25 09:05:24;;;;;;;1.83;0.57;;;21.90;99.90;;;;;;5029892;28;20025;-75
2022/02/25 09:07:53;;;;;;;3.83;1.10;;;21.80;99.90;;;;;;5029650;28;20021;-76
2022/02/25 09:10:21;;;;;;;2.58;0.88;;;21.80;99.90;;;;;;5028691;28;20073;-75
2022/02/25 09:12:49;;;;;;;2.13;1.23;;;21.80;99.90;;;;;;5018355;28;20108;-75
2022/02/25 09:15:24;;;;;;;3.65;0.75;;;21.80;99.90;;;;;;5027342;28;20472;-74
2022/02/25 09:17:53;;;;;;;3.85;0.70;;;21.80;99.90;;;;;;5028843;28;20029;-73
2022/02/25 09:20:21;;;;;;;1.23;0.70;;;21.80;99.90;;;;;;5029960;28;20037;-75
2022/02/25 09:22:50;;;;;;;4.47;1.08;;;21.80;99.90;;;;;;5027551;28;20029;-73
2022/02/25 09:25:17;;;;;;;2.67;1.13;;;21.80;99.90;;;;;;5029417;28;20056;-73
2022/02/25 09:27:45;;;;;;;2.28;0.98;;;21.80;99.90;;;;;;5025294;28;20075;-75
2022/02/25 09:30:14;;;;;;;2.30;0.95;;;21.80;99.90;;;;;;5028678;28;20041;-75
2022/02/25 09:32:42;;;;;;;1.45;0.50;;;21.80;99.90;;;;;;5028380;28;20031;-74
2022/02/25 09:35:10;;;;;;;1.52;0.63;;;21.80;99.90;;;;;;5013323;28;20029;-73
2022/02/25 09:37:37;;;;;;;4.25;0.73;;;21.80;99.90;;;;;;5028429;28;20133;-76
2022/02/25 09:40:18;;;;;;;5.35;0.80;;;21.80;99.90;;;;;;5023540;28;20032;-75
2022/02/25 09:42:46;;;;;;;1.85;0.63;;;21.80;99.90;;;;;;5015089;28;20032;-73
2022/02/25 09:45:16;;;;;;;6.03;1.55;;;21.80;99.90;;;;;;5026804;28;20125;-74
2022/02/25 09:47:44;;;;;;;5.00;1.00;;;21.90;99.90;;;;;;5027987;28;20036;-75
2022/02/25 09:50:14;;;;;;;8.07;1.40;;;21.80;99.90;;;;;;5029461;28;20029;-75
2022/02/25 09:52:43;;;;;;;6.50;2.03;;;21.90;99.90;;;;;;5024714;28;20503;-73
2022/02/25 09:55:29;;;;;;;1.67;0.93;;;21.80;99.90;;;;;;5026207;28;20068;-74
2022/02/25 09:57:59;;;;;;;;;;;21.80;99.90;;;;;;5024005;28;20107;-73
2022/02/25 10:00:28;;;;;;;4.82;1.48;;;21.80;99.90;;;;;;5026692;28;19956;-75
2022/02/25 10:02:58;;;;;;;4.82;1.38;;;21.90;99.90;;;;;;5022874;28;20022;-73
2022/02/25 10:05:29;;;;;;;5.35;2.17;;;21.90;99.90;;;;;;5018584;28;20018;-75
2022/02/25 10:08:06;;;;;;;9.05;1.05;;;21.90;99.90;;;;;;5024837;28;20390;-74
2022/02/25 10:10:45;;;;;;;2.63;1.40;;;21.90;99.90;;;;;;5027775;28;20042;-74
2022/02/25 10:13:14;;;;;;;5.15;1.48;;;21.90;99.90;;;;;;5023982;28;20022;-74
2022/02/25 10:15:43;;;;;;;4.07;1.15;;;21.90;99.90;;;;;;5025808;28;20140;-73
2022/02/25 10:18:39;;;;;;;1.52;0.80;;;21.90;99.90;;;;;;5026128;28;20454;-75
2022/02/25 10:21:08;;;;;;;;;;;21.90;99.90;;;;;;5004798;28;20469;-76
2022/02/25 10:23:38;;;;;;;3.33;1.05;;;21.80;99.90;;;;;;5018137;28;20002;-78
2022/02/25 10:26:14;;;;;;;3.20;1.27;;;21.80;99.90;;;;;;5020255;28;20025;-76
2022/02/25 10:28:44;;;;;;;4.25;0.98;;;21.80;99.90;;;;;;5024599;28;20119;-76
2022/02/25 10:31:34;;;;;;;3.42;0.73;;;21.80;99.90;;;;;;5028384;28;20039;-75
2022/02/25 10:34:11;;;;;;;4.80;0.90;;;21.90;99.90;;;;;;5024779;28;20120;-78
2022/02/25 10:36:50;;;;;;;4.72;1.80;;;21.90;99.90;;;;;;5025765;28;20480;-76
2022/02/25 10:39:30;;;;;;;5.22;1.70;;;21.90;99.90;;;;;;5028276;28;20069;-76
2022/02/25 10:42:13;;;;;;;3.85;0.98;;;21.90;99.90;;;;;;5023999;28;20030;-75
2022/02/25 10:44:53;;;;;;;4.63;1.00;;;22.00;99.90;;;;;;5024245;28;20033;-73
2022/02/25 10:47:26;;;;;;;3.83;1.73;;;22.00;99.90;;;;;;5026907;28;20096;-76
2022/02/25 10:50:05;;;;;;;5.05;1.50;;;22.00;99.90;;;;;;5023711;28;20527;-73
2022/02/25 10:52:37;;;;;;;5.57;1.27;;;21.90;99.90;;;;;;5026642;28;20029;-73
2022/02/25 10:55:10;;;;;;;4.38;1.75;;;22.00;99.90;;;;;;5025752;28;20083;-73
2022/02/25 10:57:38;;;;;;;3.83;2.10;;;21.90;99.90;;;;;;5022355;28;20037;-73
2022/02/25 11:00:08;;;;;;;7.53;1.88;;;21.90;99.90;;;;;;5016719;28;20025;-70
2022/02/25 11:02:37;;;;;;;4.30;1.15;;;21.90;99.90;;;;;;5019539;28;20026;-72
2022/02/25 11:05:19;;;;;;;1.95;1.35;;;21.90;99.90;;;;;;5023466;28;20055;-73
2022/02/25 11:07:49;;;;;;;7.00;1.67;;;21.90;99.90;;;;;;5026106;28;20552;-73
2022/02/25 11:10:19;;;;;;;4.45;2.70;;;21.90;99.90;;;;;;5012765;28;20561;-74
2022/02/25 11:12:49;;;;;;;4.70;1.15;;;21.90;99.90;;;;;;5027396;28;20398;-75
2022/02/25 11:15:26;;;;;;;1.65;1.08;;;21.90;99.90;;;;;;5025113;28;20037;-72
2022/02/25 11:17:55;;;;;;;3.30;1.23;;;21.80;99.90;;;;;;5021436;28;20026;-73
2022/02/25 11:20:31;;;;;;;3.75;1.50;;;21.80;99.90;;;;;;5022847;28;20053;-74
2022/02/25 11:23:03;;;;;;;6.03;1.95;;;21.70;99.90;;;;;;5025646;28;20026;-74
2022/02/25 11:25:31;;;;;;;3.17;1.33;;;21.80;99.90;;;;;;5026829;28;20030;-73
2022/02/25 11:28:00;;;;;;;3.55;1.13;;;21.70;99.90;;;;;;5025115;28;20046;-75
2022/02/25 11:30:48;;;;;;;3.97;1.15;;;21.80;99.90;;;;;;5029537;28;20033;-73
2022/02/25 11:33:19;;;;;;;4.22;1.15;;;21.80;99.90;;;;;;5033471;28;20093;-73
2022/02/25 11:35:51;;;;;;;2.92;1.15;;;21.80;99.90;;;;;;5025971;28;20061;-75
2022/02/25 11:38:28;;;;;;;2.47;1.20;;;21.80;99.90;;;;;;5027067;28;20532;-74
2022/02/25 11:41:00;;;;;;;3.67;0.70;;;21.80;99.90;;;;;;5024928;28;20036;-73
2022/02/25 11:43:51;;;;;;;4.78;1.30;;;21.80;99.90;;;;;;5020271;28;20160;-74
2022/02/25 11:46:33;;;;;;;5.90;1.40;;;21.80;99.90;;;;;;5025168;28;20550;-75
2022/02/25 11:49:09;;;;;;;4.30;1.10;;;21.80;99.90;;;;;;5027447;28;20041;-75
2022/02/25 11:51:50;;;;;;;1.80;0.90;;;21.80;99.90;;;;;;5027200;28;20520;-75
2022/02/25 11:54:31;;;;;;;5.20;1.88;;;21.80;99.90;;;;;;5024137;28;20124;-74
2022/02/25 11:57:04;;;;;;;1.50;0.95;;;21.80;99.90;;;;;;5024997;28;20025;-74
2022/02/25 11:59:34;;;;;;;5.05;1.45;;;21.80;99.90;;;;;;5022181;28;20037;-72
2022/02/25 12:02:06;;;;;;;3.15;1.30;;;21.80;99.90;;;;;;5026015;28;20376;-73
2022/02/25 12:04:36;;;;;;;4.47;1.30;;;21.80;99.90;;;;;;5018268;28;20029;-73
2022/02/25 12:07:05;;;;;;;6.32;1.50;;;21.80;99.90;;;;;;5025689;28;20495;-74
2022/02/25 12:09:44;;;;;;;4.75;1.63;;;21.80;99.90;;;;;;5026579;28;20048;-73
2022/02/25 12:12:24;;;;;;;7.75;1.30;;;21.80;99.90;;;;;;5027519;28;20036;-74
2022/02/25 12:15:03;;;;;;;6.05;1.25;;;21.80;99.90;;;;;;5024305;28;20361;-75
2022/02/25 12:18:02;;;;;;;4.80;1.48;;;21.80;99.90;;;;;;5021635;28;20053;-74
2022/02/25 12:20:36;;;;;;;5.88;2.45;;;21.80;99.90;;;;;;5016351;28;20519;-75
2022/02/25 12:23:21;;;;;;;5.43;1.55;;;21.80;99.90;;;;;;5021246;28;20043;-74
2022/02/25 12:25:55;;;;;;;6.45;2.95;;;21.80;99.90;;;;;;5027852;28;20017;-75
2022/02/25 12:28:28;;;;;;;7.45;1.73;;;21.80;99.90;;;;;;5023591;28;20075;-76
2022/02/25 12:31:02;;;;;;;6.82;1.90;;;21.80;99.90;;;;;;5019685;28;20042;-74
2022/02/25 12:33:46;;;;;;;6.18;1.70;;;21.80;99.90;;;;;;5023769;28;20029;-74
2022/02/25 12:36:30;;;;;;;5.90;1.95;;;21.70;99.90;;;;;;5027135;28;20547;-72
2022/02/25 12:39:31;;;;;;;3.63;1.30;;;21.70;99.90;;;;;;5026080;28;20021;-74
2022/02/25 12:42:01;;;;;;;4.38;1.45;;;21.70;99.90;;;;;;5011847;28;20030;-74
2022/02/25 12:44:33;;;;;;;6.55;1.73;;;21.70;99.90;;;;;;5031335;28;20029;-75
2022/02/25 12:47:03;;;;;;;4.90;1.45;;;21.70;99.90;;;;;;5029969;28;20349;-75
2022/02/25 12:49:33;;;;;;;4.82;1.35;;;21.70;99.90;;;;;;5029943;28;20453;-74
2022/02/25 12:52:09;;;;;;;4.43;1.05;;;21.60;99.90;;;;;;5023013;28;20022;-77
2022/02/25 12:54:39;;;;;;;3.20;1.77;;;21.60;99.90;;;;;;5019141;28;20026;-74
2022/02/25 12:57:09;;;;;;;3.35;1.30;;;21.60;99.90;;;;;;5028776;28;20030;-75
2022/02/25 12:59:54;;;;;;;4.00;1.60;;;21.60;99.90;;;;;;5019084;28;20025;-73
2022/02/25 13:02:22;;;;;;;7.47;2.77;;;21.60;99.90;;;;;;5021056;28;20056;-74
2022/02/25 13:04:52;;;;;;;4.47;1.48;;;21.60;99.90;;;;;;5027086;28;20037;-71
2022/02/25 13:07:23;;;;;;;2.25;0.88;;;21.60;99.90;;;;;;5022114;28;20051;-72
2022/02/25 13:09:52;;;;;;;1.55;1.13;;;21.60;99.90;;;;;;5021537;28;20033;-73
2022/02/25 13:12:21;;;;;;;8.93;2.80;;;21.60;99.90;;;;;;5024422;28;20548;-74